Time;durP1;ratioP1;P1;durP2;ratioP2;P2;SDS_P1;SDS_P2;PMS_P1;PMS_P2;Temp;Humidity;BMP_temperature;BMP_pressure;BME280_temperature;BME280_humidity;BME280_pressure;Samples;Min_cycle;Max_cycle;Signal;HPM_P1;HPM_P2
2023/07/06 00:01:40;;;;;;;4.78;1.70;;;;;;;14.88;79.74;101146.16;5040189;28;20033;-64
2023/07/06 00:04:06;;;;;;;6.03;2.40;;;;;;;14.86;80.25;101152.31;5030650;28;20044;-63
2023/07/06 00:06:32;;;;;;;5.80;2.00;;;;;;;14.83;80.01;101141.94;5036158;28;20094;-63
2023/07/06 00:08:58;;;;;;;2.42;1.83;;;;;;;14.80;80.69;101149.81;5036829;28;20041;-63
2023/07/06 00:11:32;;;;;;;2.83;1.65;;;;;;;14.77;80.86;101150.75;5042888;28;20047;-63
2023/07/06 00:13:57;;;;;;;4.13;1.90;;;;;;;14.74;81.06;101148.19;5035837;28;20033;-63
2023/07/06 00:16:23;;;;;;;3.72;2.53;;;;;;;14.68;81.25;101156.13;5039626;28;20556;-64
2023/07/06 00:18:48;;;;;;;3.58;2.10;;;;;;;14.65;81.51;101153.56;5036583;28;20763;-63
2023/07/06 00:21:13;;;;;;;4.40;2.30;;;;;;;14.61;82.09;101155.38;5033499;28;20095;-63
2023/07/06 00:23:43;;;;;;;5.05;2.05;;;;;;;14.58;82.39;101150.22;5039136;28;20509;-63
2023/07/06 00:26:09;;;;;;;5.57;2.03;;;;;;;14.58;82.28;101155.44;5034472;28;20188;-63
2023/07/06 00:28:35;;;;;;;5.10;2.40;;;;;;;14.55;82.29;101149.41;5040633;28;20040;-63
2023/07/06 00:31:08;;;;;;;7.35;2.42;;;;;;;14.49;83.12;101152.13;5041664;28;21219;-63
2023/07/06 00:33:34;;;;;;;4.78;1.98;;;;;;;14.44;83.37;101156.56;5034619;28;20091;-64
2023/07/06 00:35:59;;;;;;;3.80;2.42;;;;;;;14.40;83.50;101160.09;5041498;28;20045;-63
2023/07/06 00:38:25;;;;;;;3.22;2.00;;;;;;;14.38;83.92;101156.66;5035693;28;20039;-63
2023/07/06 00:40:58;;;;;;;2.78;2.03;;;;;;;14.33;84.12;101156.72;5040210;28;20029;-63
2023/07/06 00:43:49;;;;;;;2.53;2.13;;;;;;;14.28;84.50;101147.28;5032140;28;20045;-63
2023/07/06 00:46:15;;;;;;;3.35;1.90;;;;;;;14.23;84.40;101147.38;5026495;28;20450;-64
2023/07/06 00:48:47;;;;;;;4.95;2.30;;;;;;;14.20;84.75;101146.56;5032629;28;21422;-64
2023/07/06 00:51:17;;;;;;;3.35;1.85;;;;;;;14.18;84.89;101148.34;5039127;28;20139;-63
2023/07/06 00:53:49;;;;;;;4.57;2.58;;;;;;;14.14;85.27;101150.13;5035479;28;20112;-63
2023/07/06 00:56:17;;;;;;;4.03;2.45;;;;;;;14.11;85.32;101143.22;5040196;28;20737;-64
2023/07/06 00:58:46;;;;;;;7.00;2.30;;;;;;;14.09;85.73;101141.53;5036144;28;20045;-63
2023/07/06 01:01:13;;;;;;;4.22;2.38;;;;;;;14.08;85.91;101147.63;5040502;28;20036;-63
2023/07/06 01:03:44;;;;;;;4.72;1.98;;;;;;;14.04;85.98;101149.41;5039827;28;20044;-62
2023/07/06 01:06:29;;;;;;;4.75;2.60;;;;;;;14.01;85.86;101152.06;5039552;28;20037;-63
2023/07/06 01:08:55;;;;;;;5.82;2.55;;;;;;;13.99;86.10;101155.56;5034653;28;20041;-63
2023/07/06 01:11:21;;;;;;;3.80;2.38;;;;;;;13.97;86.34;101157.34;5036717;28;20040;-62
2023/07/06 01:13:51;;;;;;;4.28;2.08;;;;;;;13.96;85.87;101160.81;5040379;28;20129;-63
2023/07/06 01:16:52;;;;;;;4.65;2.28;;;;;;;13.94;86.13;101160.00;5035463;28;20040;-63
2023/07/06 01:19:42;;;;;;;3.67;2.10;;;;;;;13.92;86.17;101159.16;5035741;28;20045;-63
2023/07/06 01:22:22;;;;;;;6.68;2.78;;;;;;;13.93;86.55;101158.25;5032450;28;20052;-64
2023/07/06 01:24:59;;;;;;;3.60;2.15;;;;;;;13.89;86.47;101167.84;5033692;28;20065;-63
2023/07/06 01:27:28;;;;;;;5.07;2.30;;;;;;;13.85;86.24;101160.13;5038333;28;20072;-63
2023/07/06 01:30:14;;;;;;;5.15;2.58;;;;;;;13.80;86.56;101160.19;5034207;28;20777;-63
2023/07/06 01:32:47;;;;;;;6.97;2.60;;;;;;;13.77;86.62;101162.81;5035258;28;20045;-62
2023/07/06 01:35:23;;;;;;;4.22;2.00;;;;;;;13.75;86.91;101163.75;5040514;28;20036;-62
2023/07/06 01:37:49;;;;;;;4.63;2.40;;;;;;;13.71;86.53;101162.91;5036705;28;20118;-63
2023/07/06 01:40:15;;;;;;;6.22;2.60;;;;;;;13.71;86.78;101159.50;5040795;28;20037;-63
2023/07/06 01:42:42;;;;;;;4.68;2.13;;;;;;;13.69;86.47;101162.09;5030868;28;20569;-63
2023/07/06 01:45:15;;;;;;;5.85;2.28;;;;;;;13.68;86.28;101162.13;5035252;28;20092;-63
2023/07/06 01:47:44;;;;;;;6.32;2.30;;;;;;;13.66;86.53;101164.72;5042853;28;20037;-63
2023/07/06 01:50:12;;;;;;;3.50;2.22;;;;;;;13.68;86.40;101162.13;5030722;28;20017;-63
2023/07/06 01:52:53;;;;;;;4.97;2.10;;;;;;;13.66;86.28;101172.53;5037550;28;20037;-63
2023/07/06 01:55:21;;;;;;;4.63;2.33;;;;;;;13.65;86.30;101163.03;5035434;28;20124;-63
2023/07/06 01:58:04;;;;;;;3.03;2.30;;;;;;;13.62;86.30;101167.41;5031890;28;20041;-63
2023/07/06 02:00:30;;;;;;;5.40;2.65;;;;;;;13.62;85.94;101160.47;5034506;28;20041;-63
2023/07/06 02:02:57;;;;;;;4.53;2.10;;;;;;;13.65;85.72;101156.97;5038194;28;20052;-63
2023/07/06 02:05:23;;;;;;;4.40;2.33;;;;;;;13.67;85.23;101157.81;5040893;28;20068;-62
2023/07/06 02:07:52;;;;;;;6.70;2.13;;;;;;;13.68;84.75;101154.34;5041070;28;20115;-63
2023/07/06 02:10:19;;;;;;;5.88;2.28;;;;;;;13.65;84.65;101163.03;5037168;28;20037;-63
2023/07/06 02:12:47;;;;;;;5.03;2.58;;;;;;;13.63;84.44;101164.78;5039926;28;20041;-63
2023/07/06 02:15:21;;;;;;;5.57;2.20;;;;;;;13.64;84.13;101165.63;5041499;28;20779;-63
2023/07/06 02:17:48;;;;;;;8.68;2.88;;;;;;;13.62;84.08;101160.47;5033255;28;20045;-64
2023/07/06 02:20:15;;;;;;;4.32;2.40;;;;;;;13.60;84.01;101157.03;5035985;28;20029;-64
2023/07/06 02:22:44;;;;;;;4.07;2.00;;;;;;;13.59;84.04;101157.06;5039234;28;20036;-63
2023/07/06 02:25:10;;;;;;;5.55;2.00;;;;;;;13.56;84.60;101160.56;5035438;28;20043;-64
2023/07/06 02:27:36;;;;;;;4.15;2.20;;;;;;;13.52;84.51;101161.47;5042290;28;20041;-64
2023/07/06 02:30:02;;;;;;;3.50;1.90;;;;;;;13.48;84.60;101162.41;5041341;28;20056;-63
2023/07/06 02:32:28;;;;;;;2.65;1.70;;;;;;;13.45;84.69;101163.31;5041626;28;20068;-63
2023/07/06 02:34:54;;;;;;;6.78;2.40;;;;;;;13.42;84.73;101170.28;5038929;28;20064;-63
2023/07/06 02:37:19;;;;;;;3.00;2.00;;;;;;;13.37;84.54;101164.28;5037517;28;20033;-63
2023/07/06 02:39:45;;;;;;;6.82;2.30;;;;;;;13.32;85.11;101168.69;5035212;28;20045;-63
2023/07/06 02:42:14;;;;;;;4.43;2.03;;;;;;;13.27;85.23;101179.13;5038842;28;20033;-63
2023/07/06 02:44:40;;;;;;;3.60;1.90;;;;;;;13.26;85.12;101176.56;5034293;28;20036;-63
2023/07/06 02:47:07;;;;;;;4.63;2.45;;;;;;;13.24;85.67;101173.97;5038130;28;20040;-63
2023/07/06 02:49:32;;;;;;;5.68;2.50;;;;;;;13.21;86.00;101174.00;5033933;28;20144;-63
2023/07/06 02:52:00;;;;;;;7.65;2.58;;;;;;;13.16;86.44;101183.59;5039299;28;20061;-63
2023/07/06 02:54:26;;;;;;;3.70;2.30;;;;;;;13.11;86.59;101181.94;5039763;28;20037;-62
2023/07/06 02:56:51;;;;;;;3.83;2.08;;;;;;;13.06;87.00;101186.34;5036192;28;20037;-62
2023/07/06 02:59:16;;;;;;;3.65;2.40;;;;;;;13.00;87.17;101184.63;5037808;28;20532;-62
2023/07/06 03:01:42;;;;;;;6.60;2.72;;;;;;;12.98;87.39;101191.56;5036089;28;20032;-62
2023/07/06 03:04:10;;;;;;;3.95;2.30;;;;;;;12.96;87.37;101182.94;5038164;28;20094;-63
2023/07/06 03:06:39;;;;;;;4.82;2.50;;;;;;;12.98;87.23;101178.59;5038621;28;20037;-63
2023/07/06 03:09:05;;;;;;;8.65;2.40;;;;;;;12.98;87.13;101187.25;5033667;28;20068;-62
2023/07/06 03:11:34;;;;;;;6.20;2.45;;;;;;;12.99;87.30;101188.09;5040049;28;20040;-62
2023/07/06 03:14:02;;;;;;;5.85;2.22;;;;;;;12.97;86.98;101182.03;5046984;28;20033;-63
2023/07/06 03:16:28;;;;;;;3.05;2.20;;;;;;;12.96;86.96;101185.53;5037206;28;20069;-63
2023/07/06 03:18:53;;;;;;;3.53;2.17;;;;;;;12.95;86.77;101178.63;5035420;28;20164;-63
2023/07/06 03:21:21;;;;;;;4.60;2.22;;;;;;;12.95;87.03;101184.69;5039795;28;20041;-63
2023/07/06 03:23:49;;;;;;;3.40;2.20;;;;;;;12.96;86.64;101185.53;5033154;28;20099;-63
2023/07/06 03:26:15;;;;;;;6.35;2.75;;;;;;;12.94;86.75;101193.31;5043993;28;20517;-63
2023/07/06 03:28:40;;;;;;;5.57;2.35;;;;;;;12.96;86.71;101198.50;5037066;28;20045;-62
2023/07/06 03:31:07;;;;;;;4.07;1.83;;;;;;;12.95;86.66;101194.19;5036807;28;20044;-63
2023/07/06 03:33:32;;;;;;;4.55;2.38;;;;;;;12.94;86.54;101197.66;5041296;28;20155;-62
2023/07/06 03:35:58;;;;;;;6.97;2.20;;;;;;;12.93;86.78;101198.53;5040103;28;20717;-63
2023/07/06 03:38:27;;;;;;;6.60;2.67;;;;;;;12.90;86.60;101191.66;5037491;28;20041;-63
2023/07/06 03:40:53;;;;;;;4.35;2.33;;;;;;;12.92;86.53;101197.69;5038919;28;20048;-63
2023/07/06 03:43:19;;;;;;;3.72;2.20;;;;;;;12.94;86.23;101198.50;5038951;28;20730;-64
2023/07/06 03:45:47;;;;;;;6.07;2.42;;;;;;;12.97;85.88;101201.06;5044082;28;20048;-63
2023/07/06 03:48:14;;;;;;;7.13;2.42;;;;;;;13.03;85.51;101201.94;5037796;28;20457;-62
2023/07/06 03:50:39;;;;;;;6.03;2.55;;;;;;;13.08;85.30;101200.13;5039094;28;20037;-63
2023/07/06 03:53:05;;;;;;;5.13;2.28;;;;;;;13.11;84.98;101200.09;5043801;28;20722;-63
2023/07/06 03:55:30;;;;;;;9.88;2.92;;;;;;;13.16;84.66;101195.72;5039920;28;20029;-63
2023/07/06 03:57:57;;;;;;;6.43;2.85;;;;;;;13.21;84.59;101199.09;5040608;28;20044;-63
2023/07/06 04:00:22;;;;;;;6.50;2.15;;;;;;;13.26;84.22;101197.31;5036021;28;20048;-62
2023/07/06 04:02:54;;;;;;;4.30;2.55;;;;;;;13.32;83.85;101197.25;5035365;28;20041;-63
2023/07/06 04:05:32;;;;;;;5.55;2.50;;;;;;;13.35;83.59;101194.63;5041705;28;20037;-62
2023/07/06 04:08:03;;;;;;;7.85;2.25;;;;;;;13.42;83.23;101204.03;5036144;28;20033;-60
2023/07/06 04:10:30;;;;;;;4.38;2.00;;;;;;;13.48;83.00;101209.13;5038127;28;20735;-60
2023/07/06 04:12:56;;;;;;;5.32;2.22;;;;;;;13.52;82.98;101210.84;5034703;28;20573;-60
2023/07/06 04:15:23;;;;;;;6.70;2.30;;;;;;;13.54;82.60;101219.44;5034886;28;20787;-60
2023/07/06 04:17:48;;;;;;;6.03;2.20;;;;;;;13.60;82.13;101208.13;5036685;28;20044;-60
2023/07/06 04:20:19;;;;;;;4.22;1.90;;;;;;;13.67;81.72;101209.75;5037745;28;20037;-60
2023/07/06 04:22:49;;;;;;;4.53;2.40;;;;;;;13.72;81.87;101214.00;5032070;28;20140;-60
2023/07/06 04:25:19;;;;;;;7.13;2.05;;;;;;;13.77;81.93;101208.75;5029797;28;20029;-60
2023/07/06 04:27:45;;;;;;;5.85;2.70;;;;;;;13.82;81.19;101209.53;5032145;28;20102;-60
2023/07/06 04:30:11;;;;;;;3.72;2.13;;;;;;;13.88;81.03;101204.25;5028883;28;20671;-60
2023/07/06 04:32:36;;;;;;;3.42;2.25;;;;;;;13.94;80.71;101211.97;5032404;28;20123;-60
2023/07/06 04:35:03;;;;;;;3.42;1.83;;;;;;;14.01;80.57;101218.78;5035380;28;20032;-60
2023/07/06 04:37:28;;;;;;;4.50;2.50;;;;;;;14.06;79.71;101212.66;5036263;28;20041;-60
2023/07/06 04:39:54;;;;;;;9.15;3.08;;;;;;;14.12;79.78;101214.28;5033719;28;20512;-60
2023/07/06 04:42:19;;;;;;;4.63;2.30;;;;;;;14.18;79.53;101215.94;5036991;28;20128;-60
2023/07/06 04:44:45;;;;;;;6.30;2.78;;;;;;;14.24;79.31;101214.09;5014975;28;20544;-60
2023/07/06 04:47:11;;;;;;;4.22;1.98;;;;;;;14.30;79.22;101210.53;5033066;28;20039;-60
2023/07/06 04:49:37;;;;;;;6.45;2.40;;;;;;;14.37;78.08;101212.13;5034057;28;20041;-60
2023/07/06 04:52:03;;;;;;;2.97;2.13;;;;;;;14.39;78.21;101206.06;5034479;28;20124;-60
2023/07/06 04:54:30;;;;;;;5.45;2.58;;;;;;;14.46;78.59;101209.41;5036281;28;20095;-60
2023/07/06 04:56:55;;;;;;;4.47;2.40;;;;;;;14.47;78.40;101214.59;5033083;28;20140;-60
2023/07/06 04:59:21;;;;;;;5.15;2.08;;;;;;;14.51;78.44;101218.00;5025438;28;20487;-61
2023/07/06 05:01:47;;;;;;;6.43;2.30;;;;;;;14.53;78.16;101216.22;5028150;28;20082;-60
2023/07/06 05:04:12;;;;;;;4.18;2.35;;;;;;;14.54;77.77;101220.56;5031039;28;20587;-60
2023/07/06 05:06:37;;;;;;;6.28;2.00;;;;;;;14.56;77.83;101213.56;5030184;28;20587;-60
2023/07/06 05:09:03;;;;;;;2.83;1.80;;;;;;;14.58;77.55;101217.00;5035559;28;20048;-60
2023/07/06 05:11:30;;;;;;;2.97;1.50;;;;;;;14.62;77.43;101224.75;5028695;28;20044;-60
2023/07/06 05:13:56;;;;;;;7.88;2.47;;;;;;;14.68;77.33;101215.97;5030988;28;20025;-61
2023/07/06 05:16:22;;;;;;;4.82;1.83;;;;;;;14.74;76.58;101221.06;5028876;28;20040;-61
2023/07/06 05:18:48;;;;;;;5.50;1.58;;;;;;;14.82;76.16;101220.91;5025221;28;21086;-62
2023/07/06 05:21:14;;;;;;;4.28;1.70;;;;;;;14.90;76.20;101222.47;5031004;28;20090;-61
2023/07/06 05:23:40;;;;;;;5.20;2.30;;;;;;;14.96;76.10;101219.75;5020924;28;20041;-61
2023/07/06 05:26:07;;;;;;;3.80;1.80;;;;;;;15.01;75.33;101210.13;5025609;28;20504;-61
2023/07/06 05:28:32;;;;;;;3.42;1.77;;;;;;;15.04;74.60;101220.50;5025260;28;20048;-61
2023/07/06 05:31:00;;;;;;;4.93;2.20;;;;;;;15.09;74.37;101213.44;5022591;28;20056;-62
2023/07/06 05:33:26;;;;;;;6.00;2.28;;;;;;;15.15;74.12;101215.06;5027942;28;20057;-61
2023/07/06 05:35:51;;;;;;;4.68;1.42;;;;;;;15.18;74.19;101210.66;5028970;28;20037;-61
2023/07/06 05:38:16;;;;;;;4.25;1.90;;;;;;;15.26;73.35;101207.88;5032260;28;20867;-62
2023/07/06 05:40:42;;;;;;;3.08;1.60;;;;;;;15.32;72.49;101202.53;5028792;28;20057;-61
2023/07/06 05:43:09;;;;;;;4.53;1.73;;;;;;;15.38;72.46;101198.94;5033222;28;20037;-61
2023/07/06 05:45:34;;;;;;;5.57;1.88;;;;;;;15.47;71.94;101202.22;5031551;28;20079;-61
2023/07/06 05:48:00;;;;;;;5.13;1.55;;;;;;;15.54;71.97;101208.16;5030438;28;21545;-62
2023/07/06 05:50:26;;;;;;;4.78;1.85;;;;;;;15.57;71.69;101208.09;5032738;28;20595;-61
2023/07/06 05:52:52;;;;;;;2.97;1.63;;;;;;;15.58;70.80;101199.41;5032617;28;20040;-61
2023/07/06 05:55:17;;;;;;;5.78;1.60;;;;;;;15.63;70.78;101205.41;5034842;28;20031;-61
2023/07/06 05:57:45;;;;;;;3.17;1.50;;;;;;;15.67;70.24;101210.50;5032120;28;20193;-61
2023/07/06 06:00:11;;;;;;;3.35;1.63;;;;;;;15.75;70.56;101207.72;5038943;28;20541;-62
2023/07/06 06:02:38;;;;;;;6.85;2.00;;;;;;;15.83;68.91;101184.09;5029322;28;20052;-62
2023/07/06 06:05:05;;;;;;;5.43;1.80;;;;;;;15.93;69.09;101189.06;5034640;28;20083;-61
2023/07/06 06:07:33;;;;;;;2.72;1.75;;;;;;;15.98;68.19;101189.81;5034137;28;20041;-62
2023/07/06 06:10:03;;;;;;;6.43;1.60;;;;;;;16.02;67.79;101193.19;5030125;28;20047;-61
2023/07/06 06:12:31;;;;;;;3.72;1.55;;;;;;;16.09;67.71;101194.75;5032306;28;20041;-62
2023/07/06 06:14:57;;;;;;;2.53;1.23;;;;;;;16.13;67.86;101193.78;5036099;28;20033;-61
2023/07/06 06:17:22;;;;;;;3.65;1.65;;;;;;;16.20;67.33;101191.00;5033174;28;20033;-61
2023/07/06 06:19:48;;;;;;;3.53;1.65;;;;;;;16.25;66.17;101167.41;5032176;28;20516;-61
2023/07/06 06:22:18;;;;;;;5.28;1.67;;;;;;;16.32;66.40;101175.03;5031326;28;20037;-62
2023/07/06 06:24:44;;;;;;;4.13;1.67;;;;;;;16.39;65.63;101173.13;5027738;28;20044;-62
2023/07/06 06:27:17;;;;;;;3.53;1.40;;;;;;;16.47;65.32;101165.97;5029760;28;20041;-62
2023/07/06 06:29:43;;;;;;;2.85;1.15;;;;;;;16.53;65.46;101181.47;5035624;28;20257;-61
2023/07/06 06:32:10;;;;;;;4.70;1.77;;;;;;;16.58;64.64;101182.22;5030257;28;20049;-62
2023/07/06 06:34:36;;;;;;;2.70;1.25;;;;;;;16.62;62.76;101147.28;5037490;28;20029;-62
2023/07/06 06:37:04;;;;;;;3.95;1.42;;;;;;;16.73;63.68;101175.72;5037217;28;20041;-62
2023/07/06 06:39:30;;;;;;;4.25;1.02;;;;;;;16.77;63.09;101159.94;5035669;28;20094;-61
2023/07/06 06:41:56;;;;;;;5.25;1.70;;;;;;;16.86;63.02;101182.34;5038569;28;20048;-61
2023/07/06 06:44:21;;;;;;;2.55;1.45;;;;;;;16.92;62.98;101165.66;5030376;28;20029;-60
2023/07/06 06:46:47;;;;;;;3.85;1.65;;;;;;;16.95;63.38;101189.91;5037898;28;20068;-64
2023/07/06 06:49:13;;;;;;;3.78;1.33;;;;;;;16.98;63.60;101191.63;5038962;28;20041;-64
2023/07/06 06:51:39;;;;;;;3.90;1.30;;;;;;;17.02;62.67;101180.16;5037502;28;20402;-64
2023/07/06 06:54:04;;;;;;;6.65;1.33;;;;;;;17.07;62.26;101184.34;5032898;28;20751;-64
2023/07/06 06:56:30;;;;;;;6.78;1.67;;;;;;;17.15;61.76;101178.94;5032870;28;20041;-64
2023/07/06 06:58:56;;;;;;;4.03;1.73;;;;;;;17.26;61.28;101167.25;5037683;28;20156;-65
2023/07/06 07:01:22;;;;;;;5.13;1.45;;;;;;;17.33;61.80;101187.06;5016796;28;20382;-64
2023/07/06 07:03:48;;;;;;;2.13;1.10;;;;;;;17.36;61.49;101189.59;5040682;28;20029;-60
2023/07/06 07:06:14;;;;;;;3.45;1.20;;;;;;;17.36;60.56;101176.53;5038103;28;20045;-60
2023/07/06 07:08:45;;;;;;;2.85;1.15;;;;;;;17.36;58.61;101134.72;5036527;28;20032;-61
2023/07/06 07:11:12;;;;;;;3.83;1.88;;;;;;;17.45;59.02;101154.50;5039510;28;20265;-60
2023/07/06 07:13:40;;;;;;;3.45;1.38;;;;;;;17.52;58.67;101148.19;5037723;28;20068;-60
2023/07/06 07:16:07;;;;;;;2.47;1.10;;;;;;;17.58;57.87;101134.91;5034618;28;20072;-60
2023/07/06 07:18:33;;;;;;;5.90;1.63;;;;;;;17.73;58.25;101155.34;5034861;28;20072;-61
2023/07/06 07:21:01;;;;;;;2.00;1.13;;;;;;;17.79;58.64;101160.38;5036645;28;20498;-60
2023/07/06 07:23:35;;;;;;;3.75;1.52;;;;;;;17.80;58.01;101149.03;5036009;28;20071;-60
2023/07/06 07:26:03;;;;;;;4.60;1.53;;;;;;;17.89;57.55;101143.53;5034977;28;20036;-60
2023/07/06 07:28:29;;;;;;;2.80;1.20;;;;;;;17.96;57.20;101141.56;5035008;28;20290;-61
2023/07/06 07:30:59;;;;;;;4.15;1.30;;;;;;;17.97;56.50;101133.69;5036950;28;20068;-61
2023/07/06 07:33:27;;;;;;;3.45;1.30;;;;;;;18.04;56.86;101146.56;5035709;28;20040;-61
2023/07/06 07:35:57;;;;;;;5.32;1.65;;;;;;;18.17;56.47;101138.25;5035258;28;20793;-61
2023/07/06 07:38:23;;;;;;;5.15;1.40;;;;;;;18.21;56.58;101137.25;5032547;28;20048;-61
2023/07/06 07:40:55;;;;;;;3.90;1.60;;;;;;;18.34;57.31;101154.25;5034687;28;20039;-61
2023/07/06 07:43:25;;;;;;;2.45;1.05;;;;;;;18.42;56.26;101140.88;5035906;28;20479;-61
2023/07/06 07:45:53;;;;;;;3.00;1.25;;;;;;;18.40;55.36;101120.00;5034698;28;21733;-61
2023/07/06 07:48:18;;;;;;;4.40;1.63;;;;;;;18.40;54.72;101120.00;5033753;28;20478;-61
2023/07/06 07:50:49;;;;;;;3.75;1.08;;;;;;;18.45;54.50;101112.84;5031862;28;20044;-60
2023/07/06 07:53:14;;;;;;;5.03;1.05;;;;;;;18.55;54.52;101123.00;5035326;28;20149;-60
2023/07/06 07:55:41;;;;;;;5.22;1.20;;;;;;;18.60;53.83;101111.44;5034725;28;20082;-61
2023/07/06 07:58:06;;;;;;;3.53;1.10;;;;;;;18.65;54.27;101121.75;5034560;28;20048;-60
2023/07/06 08:00:34;;;;;;;3.72;1.25;;;;;;;18.70;54.78;101133.75;5035205;28;20045;-60
2023/07/06 08:03:03;;;;;;;4.20;1.33;;;;;;;18.75;53.97;101116.13;5034454;28;20048;-60
2023/07/06 08:05:29;;;;;;;3.45;1.00;;;;;;;18.89;54.56;101131.38;5035521;28;20029;-61
2023/07/06 08:07:55;;;;;;;2.08;0.90;;;;;;;18.99;54.04;101124.91;5033138;28;20043;-60
2023/07/06 08:10:21;;;;;;;3.80;1.30;;;;;;;19.00;53.24;101111.72;5036268;28;20056;-61
2023/07/06 08:12:49;;;;;;;2.13;1.10;;;;;;;18.99;53.07;101106.56;5031489;28;20037;-60
2023/07/06 08:15:15;;;;;;;8.38;1.40;;;;;;;19.08;52.25;101093.09;5020299;28;20048;-61
2023/07/06 08:17:41;;;;;;;3.03;1.02;;;;;;;19.18;52.48;101104.06;5031933;28;20037;-61
2023/07/06 08:20:10;;;;;;;2.25;1.05;;;;;;;19.39;52.25;101100.63;5034634;28;20853;-61
2023/07/06 08:22:36;;;;;;;2.90;0.95;;;;;;;19.36;52.03;101095.50;5032135;28;20203;-61
2023/07/06 08:25:02;;;;;;;2.17;1.02;;;;;;;19.33;51.30;101093.00;5031122;28;20045;-61
2023/07/06 08:27:30;;;;;;;4.60;1.10;;;;;;;19.35;50.87;101083.31;5032831;28;20037;-61
2023/07/06 08:29:55;;;;;;;4.82;1.00;;;;;;;19.38;50.35;101078.81;5033466;28;20057;-61
2023/07/06 08:32:22;;;;;;;4.53;1.10;;;;;;;19.48;50.91;101097.63;5034225;28;20068;-61
2023/07/06 08:34:47;;;;;;;4.75;1.30;;;;;;;19.56;50.85;101096.41;5030801;28;20024;-61
2023/07/06 08:37:12;;;;;;;2.08;0.75;;;;;;;19.66;50.43;101085.56;5032789;28;20044;-62
2023/07/06 08:39:39;;;;;;;2.88;0.90;;;;;;;19.74;49.73;101076.47;5029856;28;20052;-61
2023/07/06 08:42:09;;;;;;;1.77;0.80;;;;;;;19.87;48.80;101067.22;5035452;28;20040;-65
2023/07/06 08:44:36;;;;;;;4.88;1.40;;;;;;;20.00;48.73;101057.91;5033670;28;20536;-66
2023/07/06 08:47:02;;;;;;;3.85;1.05;;;;;;;20.12;49.08;101067.91;5035043;28;20545;-66
2023/07/06 08:49:32;;;;;;;1.83;0.80;;;;;;;20.16;48.89;101063.34;5026871;28;20112;-66
2023/07/06 08:52:05;;;;;;;1.98;1.00;;;;;;;20.21;47.73;101042.16;5034586;28;20037;-65
2023/07/06 08:54:35;;;;;;;2.20;0.85;;;;;;;20.17;46.71;101031.78;5035756;28;20063;-65
2023/07/06 08:57:01;;;;;;;2.78;0.90;;;;;;;20.09;47.38;101038.28;5037122;28;20562;-64
2023/07/06 08:59:41;;;;;;;3.35;0.88;;;;;;;20.21;46.88;101043.03;5028469;28;20065;-65
2023/07/06 09:02:09;;;;;;;2.67;0.80;;;;;;;20.29;46.89;101037.41;5035163;28;20686;-65
2023/07/06 09:04:36;;;;;;;1.50;0.85;;;;;;;20.41;46.74;101052.63;5038364;28;20052;-65
2023/07/06 09:07:02;;;;;;;1.70;0.80;;;;;;;20.50;46.34;101046.97;5034534;28;20047;-65
2023/07/06 09:09:28;;;;;;;1.60;0.70;;;;;;;20.46;46.37;101038.38;5029395;28;20033;-66
2023/07/06 09:11:58;;;;;;;1.70;0.75;;;;;;;20.46;46.13;101051.50;5034185;28;20548;-66
2023/07/06 09:14:28;;;;;;;1.42;0.80;;;;;;;20.53;46.58;101046.84;5034977;28;20121;-66
2023/07/06 09:16:56;;;;;;;1.70;0.90;;;;;;;20.59;46.31;101034.28;5032083;28;20297;-65
2023/07/06 09:19:23;;;;;;;2.55;0.85;;;;;;;20.71;46.64;101051.31;5030668;28;20065;-65
2023/07/06 09:21:54;;;;;;;2.10;1.00;;;;;;;20.74;45.72;101030.13;5040381;28;20132;-65
2023/07/06 09:24:20;;;;;;;1.90;0.90;;;;;;;20.86;45.84;101047.13;5033473;28;20041;-65
2023/07/06 09:26:46;;;;;;;2.00;0.80;;;;;;;20.79;45.25;101029.91;5031864;28;20882;-64
2023/07/06 09:29:21;;;;;;;2.08;0.88;;;;;;;20.72;44.52;101021.47;5033674;28;20041;-64
2023/07/06 09:31:47;;;;;;;;;;;;;;;20.81;45.47;101038.59;5033778;28;20049;-65
2023/07/06 09:34:31;;;;;;;2.20;0.90;;;;;;;20.95;45.40;101044.06;5031964;28;19927;-65
2023/07/06 09:36:57;;;;;;;1.95;1.10;;;;;;;21.29;45.37;101033.63;5033326;28;20040;-65
2023/07/06 09:39:24;;;;;;;2.03;0.63;;;;;;;21.48;43.91;101021.31;5031622;28;20049;-65
2023/07/06 09:41:51;;;;;;;1.33;0.68;;;;;;;21.54;42.89;100999.97;5031697;28;20037;-65
2023/07/06 09:44:29;;;;;;;5.03;0.90;;;;;;;21.78;42.78;100992.66;5029138;28;20108;-64
2023/07/06 09:46:55;;;;;;;1.98;0.70;;;;;;;22.02;42.40;100983.50;5025064;28;20028;-65
2023/07/06 09:49:24;;;;;;;3.20;0.75;;;;;;;22.29;42.05;100984.66;5030083;28;20128;-65
2023/07/06 09:52:11;;;;;;;1.65;0.93;;;;;;;22.46;41.80;100985.59;5041447;28;20052;-64
2023/07/06 09:54:43;;;;;;;1.27;0.88;;;;;;;22.60;40.92;100977.78;5027504;28;20176;-65
2023/07/06 09:57:15;;;;;;;1.60;0.80;;;;;;;22.82;40.29;100976.53;5031200;28;20147;-65
2023/07/06 09:59:46;;;;;;;2.15;0.60;;;;;;;22.95;40.18;100979.31;5029743;28;20517;-65
2023/07/06 10:02:33;;;;;;;3.53;0.80;;;;;;;22.96;40.46;100974.88;5031263;28;20043;-65
2023/07/06 10:05:11;;;;;;;2.47;0.73;;;;;;;23.18;39.99;100981.56;5032691;28;20457;-65
2023/07/06 10:08:00;;;;;;;1.17;0.55;;;;;;;22.81;39.73;100982.72;5032133;28;20044;-65
2023/07/06 10:10:38;;;;;;;2.08;0.60;;;;;;;22.76;40.87;101005.84;5033252;28;20133;-65
2023/07/06 10:13:09;;;;;;;0.95;0.57;;;;;;;23.13;40.15;100986.19;5031634;28;20041;-66
2023/07/06 10:16:03;;;;;;;0.85;0.60;;;;;;;23.23;38.99;100962.81;5034347;28;20048;-65
2023/07/06 10:18:39;;;;;;;1.63;0.50;;;;;;;23.17;39.19;100973.69;4975674;28;20814;-65
2023/07/06 10:21:17;;;;;;;1.85;0.70;;;;;;;23.33;39.58;100985.94;5031408;28;20064;-63
2023/07/06 10:23:59;;;;;;;2.08;0.60;;;;;;;23.20;39.19;100982.31;5030846;28;20033;-63
2023/07/06 10:26:29;;;;;;;2.80;0.75;;;;;;;23.52;39.13;100982.22;5037969;28;20028;-63
2023/07/06 10:29:00;;;;;;;2.40;0.90;;;;;;;24.04;38.90;100980.03;5037860;28;20554;-64
2023/07/06 10:31:33;;;;;;;1.05;0.63;;;;;;;24.32;38.88;100975.59;5033776;28;20044;-64
2023/07/06 10:34:21;;;;;;;2.50;0.88;;;;;;;24.58;37.75;100959.91;5038641;28;20110;-63
2023/07/06 10:36:48;;;;;;;0.93;0.50;;;;;;;24.65;37.50;100958.56;5038119;28;20419;-63
2023/07/06 10:39:42;;;;;;;2.30;0.80;;;;;;;24.46;36.94;100958.91;5035934;28;20403;-63
2023/07/06 10:42:21;;;;;;;1.17;0.52;;;;;;;24.22;37.76;100976.25;5035704;28;20044;-63
2023/07/06 10:44:55;;;;;;;1.58;0.77;;;;;;;23.93;37.24;100985.91;5039711;28;20315;-62
2023/07/06 10:47:39;;;;;;;1.42;0.65;;;;;;;23.46;37.22;100967.59;5035046;28;20034;-62
2023/07/06 10:50:05;;;;;;;1.67;0.75;;;;;;;23.66;37.43;100983.09;5039644;28;20135;-63
2023/07/06 10:53:04;;;;;;;1.65;0.65;;;;;;;23.92;36.18;100958.69;5042902;28;20244;-63
2023/07/06 10:55:36;;;;;;;3.90;0.90;;;;;;;23.70;37.20;100976.72;5035068;28;20522;-63
2023/07/06 10:58:17;;;;;;;1.48;0.50;;;;;;;23.92;36.86;100979.78;5041584;28;20106;-63
2023/07/06 11:00:44;;;;;;;2.28;0.80;;;;;;;23.82;36.10;100973.34;5040902;28;20459;-64
2023/07/06 11:03:16;;;;;;;1.90;0.73;;;;;;;23.49;36.79;100969.22;5035786;28;20040;-63
2023/07/06 11:06:07;;;;;;;1.75;0.50;;;;;;;23.40;38.14;100994.34;5036579;28;20578;-63
2023/07/06 11:09:09;;;;;;;1.83;0.90;;;;;;;23.28;37.91;100995.03;5034356;28;20052;-63
2023/07/06 11:11:55;;;;;;;1.27;0.60;;;;;;;23.40;39.48;101021.56;5032049;28;20075;-63
2023/07/06 11:14:34;;;;;;;1.10;0.60;;;;;;;23.61;37.65;100995.75;5040592;28;20362;-62
2023/07/06 11:17:22;;;;;;;2.88;0.73;;;;;;;23.86;38.37;101001.28;5028969;28;20094;-64
2023/07/06 11:20:07;;;;;;;1.58;0.73;;;;;;;24.17;36.12;100970.38;5036178;28;20048;-64
2023/07/06 11:22:32;;;;;;;2.58;0.82;;;;;;;24.09;36.41;100984.09;5035328;28;20719;-64
2023/07/06 11:25:05;;;;;;;1.40;0.80;;;;;;;24.12;36.70;100985.69;5028837;28;20049;-64
2023/07/06 11:27:36;;;;;;;3.92;0.98;;;;;;;23.93;37.12;100996.47;5039060;28;20791;-63
2023/07/06 11:30:36;;;;;;;2.03;0.70;;;;;;;24.30;36.42;100988.06;5032459;28;20076;-64
2023/07/06 11:33:24;;;;;;;1.10;0.52;;;;;;;24.83;35.89;100968.00;5031367;28;21307;-64
2023/07/06 11:36:13;;;;;;;2.53;1.23;;;;;;;24.83;33.84;100944.19;5034058;28;21784;-63